• Join FlightAware (Why Join?)
  • Login
  • US Flag 
08:28PM EDT


 

Airport Tracker/Info


-or-


 

Live Flight TrackerFlight Track Log ✈ DAL6067 ✈ 24-Apr-2013 ✈ KDTW - KCMH

Flight Track Log - Related Links

Times and Time Zones

All times are in EDT time to prevent confusion due to time zone crossing. See the DAL6067 flight status page for this flight to view local times or setup timezone preferences in your user account.

Time Position Orientation Groundspeed Altitude Reporting Facility
EDT Latitude Longitude Course Direction KTS MPH feet Rate Location/Type
12:23PM 42.2292 -83.3342 205° Southwest 160 184 1,200  Level Cleveland Center
12:24PM 42.2728 -83.2603 51° Northeast 216 249 4,400 2,160 Climbing Cleveland Center
12:25PM 42.2808 -83.1764 83° East 272 313 6,600 2,040 Climbing Cleveland Center
12:26PM 41.8869 -83.2836 180° South  Level Estimated
12:27PM 41.8055 -83.2662 180° South  Level Estimated
12:27PM 42.1686 -83.0681 144° Southeast 264 304 10,800  Level Cleveland Center
12:28PM 41.7311 -83.3136 205° Southwest  Level FlightAware Approximate
12:28PM 42.1172 -83.1333 223° Southwest 273 314 12,900  Level Cleveland Center
12:29PM 42.0539 -83.1672 202° Southwest 263 303 15,300 4,500 Climbing Cleveland Center
12:30PM 41.9842 -83.2006 200° South 251 289 22,000 1,920 Climbing Cleveland Center
12:31PM 41.9294 -83.2264 199° South 238 274 19,200 -360 Descending Cleveland Center
12:32PM 41.8619 -83.2569 199° South 238 274 21,300 1,380 Climbing Cleveland Center
12:33PM 41.7947 -83.2847 197° South 238 274 22,000 300 Climbing Cleveland Center
12:34PM 41.7250 -83.3181 200° South 252 290 22,000  Level Cleveland Center
12:35PM 41.6597 -83.3431 196° South 252 290 22,000  Level Cleveland Center
12:36PM 41.5869 -83.3400 178° South 258 297 22,000  Level Cleveland Center
12:37PM 41.5097 -83.3422 181° South 263 303 22,000  Level Cleveland Center
12:38PM 41.4419 -83.3836 205° Southwest 269 310 22,000  Level Cleveland Center
12:39PM 41.3764 -83.4222 204° Southwest 269 310 22,000  Level Cleveland Center
12:40PM 41.3089 -83.4608 203° Southwest 269 310 22,000  Level Cleveland Center
12:41PM 41.2411 -83.4992 203° Southwest 269 310 22,000  Level Cleveland Center
12:42PM 41.1733 -83.5406 205° Southwest 269 310 22,000 -780 Level Cleveland Center
12:43PM 41.1097 -83.5761 203° Southwest 264 304 20,500 -1,800 Descending Cleveland Center
12:44PM 41.0506 -83.6092 203° Southwest 241 277 18,400 -2,100 Descending Cleveland Center
12:45PM 40.9875 -83.6283 193° South 234 269 16,300 -2,100 Descending Cleveland Center
12:46PM 40.9197 -83.5922 158° South 240 276 14,300 -1,920 Descending Cleveland Center
12:47PM 40.8542 -83.5481 153° Southeast 254 292 12,500 -1,740 Descending Cleveland Center
12:48PM 40.7886 -83.5039 153° Southeast 264 304 10,900 -1,260 Descending Cleveland Center
12:49PM 40.7228 -83.4625 155° Southeast 264 304 10,000 -480 Descending Cleveland Center
12:50PM 40.6611 -83.4272 157° South 264 304 10,000  Level Cleveland Center
12:51PM 40.6194 -83.3972 151° Southeast 264 304 10,000  Level Indianapolis Center
12:52PM 40.5533 -83.3542 154° Southeast 262 302 10,000  Level Indianapolis Center
12:53PM 40.4878 -83.3103 153° Southeast 262 302 10,100  Climbing Indianapolis Center
12:53PM 40.4456 -83.2844 155° Southeast 262 302 10,000  Descending Indianapolis Center
12:54PM 40.4225 -83.2681 152° Southeast 259 298 10,100  Climbing Indianapolis Center
12:54PM 40.3817 -83.2411 153° Southeast 257 296 10,000  Descending Indianapolis Center
12:55PM 40.3572 -83.2272 157° South 257 296 10,100 -600 Climbing Indianapolis Center
12:55PM 40.3172 -83.2033 156° South 248 285 9,400 -1,560 Descending Indianapolis Center
12:56PM 40.2908 -83.1697 136° Southeast 251 289 8,500 -1,680 Descending Indianapolis Center
12:56PM 40.2703 -83.1294 124° Southeast 278 320 7,700 -1,680 Descending Indianapolis Center
12:57PM 40.2508 -83.0839 119° Southeast 272 313 6,800 -1,500 Descending Indianapolis Center
12:57PM 40.2319 -83.0456 123° Southeast 273 314 6,200 -840 Descending Indianapolis Center
12:58PM 40.2092 -83.0003 123° Southeast 271 312 6,000 -600 Descending Indianapolis Center
12:58PM 40.1931 -82.9728 127° Southeast 267 307 5,700 -1,020 Descending Indianapolis Center
12:59PM 40.1678 -82.9186 121° Southeast 269 310 5,000 -1,020 Descending Indianapolis Center
01:00PM 40.1417 -82.8661 123° Southeast 260 299 4,400 -900 Descending Indianapolis Center
01:00PM 40.1278 -82.8397 125° Southeast 262 302 4,100 -420 Descending Indianapolis Center
01:01PM 40.1008 -82.7878 124° Southeast 255 293 4,000 -120 Descending Indianapolis Center
01:01PM 40.0883 -82.7608 121° Southeast 260 299 4,000  Level Indianapolis Center
01:02PM 40.0717 -82.7219 119° Southeast 248 285 4,000  Level Indianapolis Center
01:02PM 40.0725 -82.6781 89° East 248 285 4,000 60 Level Indianapolis Center
01:03PM 40.0689 -82.6344 96° East 226 260 4,100  Climbing Indianapolis Center
01:03PM 40.0478 -82.6247 161° South 214 246 4,000 -120 Descending Indianapolis Center
01:04PM 40.0269 -82.6381 206° Southwest 146 168 4,000 -420 Level Indianapolis Center
01:04PM 40.0128 -82.6489 210° Southwest 165 190 3,600 -900 Descending Indianapolis Center
01:05PM 40.0014 -82.6733 239° Southwest 154 177 3,100 -1,200 Descending Indianapolis Center